Brooks, California
Current Conditions -  °F | °C
As of 8:20 AM on Wednesday 28 Jan 2015 (Local Time) from KEDU Reporting Station
Clear Clear  
Wind Chill: 50°   Ceiling: Unl
Heat Index: 50°   Visibility: 6mi
Dew Point: 45°   Wind: 7mph
Humidity: 82%   Direction: 340°NNW
Pressure: 30.26"   Gusts: NA
Location:  38.74°N, 122.15°W
Report Text: KEDU 281620Z AUTO 34006KT 6SM CLR 10/07 A3026 RMK AO1
Loading
Personal Weather Stations






























Interactive Weather Map New forecast layout! Learn more

10-Day Weather Forecast

Advertisements
Track Severe Weather on mobile